Time;durP1;ratioP1;P1;durP2;ratioP2;P2;SDS_P1;SDS_P2;PMS_P1;PMS_P2;Temp;Humidity;BMP_temperature;BMP_pressure;BME280_temperature;BME280_humidity;BME280_pressure;Samples;Min_cycle;Max_cycle;Signal;HPM_P1;HPM_P2
2022/11/13 00:00:37;;;;;;;17.80;11.00;;;4.10;99.90;;;;;;5101574;28;20219;-82
2022/11/13 00:03:04;;;;;;;13.20;9.03;;;4.10;99.90;;;;;;5101370;28;20280;-82
2022/11/13 00:05:32;;;;;;;14.13;9.63;;;3.90;99.90;;;;;;5099600;28;20642;-82
2022/11/13 00:07:59;;;;;;;13.43;9.70;;;3.80;99.90;;;;;;5101626;28;20573;-82
2022/11/13 00:10:25;;;;;;;14.07;10.00;;;3.90;99.90;;;;;;5105945;28;20539;-82
2022/11/13 00:12:53;;;;;;;14.13;10.20;;;4.00;99.90;;;;;;5111253;28;20247;-82
2022/11/13 00:15:20;;;;;;;14.90;9.90;;;4.10;99.90;;;;;;5100036;28;20243;-82
2022/11/13 00:17:47;;;;;;;12.77;8.73;;;3.90;99.90;;;;;;5101026;28;20213;-82
2022/11/13 00:20:14;;;;;;;16.10;9.57;;;3.90;99.90;;;;;;5111673;28;20197;-82
2022/11/13 00:22:42;;;;;;;14.77;10.57;;;3.80;99.90;;;;;;5120585;28;20649;-82
2022/11/13 00:25:09;;;;;;;13.87;9.87;;;3.60;99.90;;;;;;5120614;28;20196;-82
2022/11/13 00:27:36;;;;;;;13.07;9.43;;;3.60;99.90;;;;;;5115822;28;20218;-82
2022/11/13 00:30:03;;;;;;;15.67;9.87;;;3.60;99.90;;;;;;5110153;28;20203;-82
2022/11/13 00:32:30;;;;;;;14.13;10.00;;;3.70;99.90;;;;;;5106982;28;20193;-82
2022/11/13 00:34:57;;;;;;;14.47;10.33;;;3.60;99.90;;;;;;5101595;28;20699;-82
2022/11/13 00:37:24;;;;;;;15.13;10.50;;;3.80;99.90;;;;;;5100473;28;20248;-82
2022/11/13 00:39:52;;;;;;;11.97;9.17;;;3.80;99.90;;;;;;5116852;28;20196;-82
2022/11/13 00:42:19;;;;;;;14.27;9.60;;;3.70;99.90;;;;;;5086575;28;20193;-82
2022/11/13 00:44:45;;;;;;;14.63;9.60;;;3.60;99.90;;;;;;5121013;28;20219;-82
2022/11/13 00:47:12;;;;;;;14.33;10.23;;;3.40;99.90;;;;;;5105032;28;20308;-82
2022/11/13 00:49:39;;;;;;;14.50;9.10;;;3.40;99.90;;;;;;5115574;28;20211;-82
2022/11/13 00:52:06;;;;;;;11.67;9.03;;;3.60;99.90;;;;;;5101310;28;20198;-82
2022/11/13 00:54:33;;;;;;;14.70;10.10;;;3.60;99.90;;;;;;5105261;28;20203;-82
2022/11/13 00:57:01;;;;;;;12.00;9.50;;;3.70;99.90;;;;;;5116183;28;20217;-82
2022/11/13 00:59:28;;;;;;;11.70;8.53;;;3.60;99.90;;;;;;5101145;28;20217;-82
2022/11/13 01:01:54;;;;;;;16.27;9.97;;;3.50;99.90;;;;;;5099550;28;20581;-82
2022/11/13 01:04:21;;;;;;;13.80;10.00;;;3.40;99.90;;;;;;5112413;28;20565;-82
2022/11/13 01:06:48;;;;;;;14.47;8.60;;;3.40;99.90;;;;;;5120587;28;20590;-82
2022/11/13 01:09:15;;;;;;;13.33;9.47;;;3.40;99.90;;;;;;5118932;28;20688;-82
2022/11/13 01:11:42;;;;;;;12.93;8.73;;;3.50;99.90;;;;;;5118920;28;20204;-82
2022/11/13 01:14:10;;;;;;;14.50;10.27;;;3.50;99.90;;;;;;5102533;28;20197;-82
2022/11/13 01:16:37;;;;;;;12.40;9.47;;;3.60;99.90;;;;;;5103864;28;20223;-82
2022/11/13 01:19:04;;;;;;;12.93;9.20;;;3.50;99.90;;;;;;5109847;28;20200;-83
2022/11/13 01:21:30;;;;;;;13.20;8.80;;;3.40;99.90;;;;;;5107731;28;20554;-82
2022/11/13 01:23:57;;;;;;;13.27;9.23;;;3.40;99.90;;;;;;5118909;28;20201;-82
2022/11/13 01:26:27;;;;;;;14.77;9.33;;;3.40;99.90;;;;;;5100364;28;20205;-83
2022/11/13 01:28:55;;;;;;;14.10;9.93;;;3.30;99.90;;;;;;5114379;28;20197;-82
2022/11/13 01:31:25;;;;;;;16.20;10.93;;;3.40;99.90;;;;;;5098336;28;20204;-82
2022/11/13 01:33:52;;;;;;;14.40;9.87;;;3.40;99.90;;;;;;5105553;28;20215;-82
2022/11/13 01:36:20;;;;;;;17.77;9.80;;;3.50;99.90;;;;;;5118251;28;20616;-82
2022/11/13 01:38:48;;;;;;;13.63;9.67;;;3.40;99.90;;;;;;5117955;28;20211;-82
2022/11/13 01:41:18;;;;;;;15.97;10.20;;;3.40;99.90;;;;;;5118717;28;20295;-82
2022/11/13 01:43:45;;;;;;;14.40;9.80;;;3.40;99.90;;;;;;5117748;28;20208;-82
2022/11/13 01:46:22;;;;;;;14.77;9.93;;;3.40;99.90;;;;;;5118701;28;20203;-82
2022/11/13 01:48:53;;;;;;;12.97;9.07;;;3.30;99.90;;;;;;5117953;28;20215;-82
2022/11/13 01:51:26;;;;;;;13.67;9.53;;;3.20;99.90;;;;;;5117623;28;20192;-82
2022/11/13 01:53:53;;;;;;;14.60;9.77;;;3.10;99.90;;;;;;5107758;28;20192;-82
2022/11/13 01:56:20;;;;;;;13.47;9.33;;;3.30;99.90;;;;;;5098443;28;20218;-82
2022/11/13 01:58:51;;;;;;;12.40;9.70;;;3.20;99.90;;;;;;5110765;28;20227;-82
2022/11/13 02:01:18;;;;;;;13.27;9.27;;;3.10;99.90;;;;;;5096901;28;20556;-82
2022/11/13 02:03:45;;;;;;;12.77;9.00;;;3.10;99.90;;;;;;5097622;28;20598;-82
2022/11/13 02:06:14;;;;;;;13.97;9.30;;;3.10;99.90;;;;;;5096553;28;20205;-82
2022/11/13 02:08:43;;;;;;;14.37;9.33;;;3.20;99.90;;;;;;5114403;28;20217;-82
2022/11/13 02:11:10;;;;;;;14.27;10.07;;;3.20;99.90;;;;;;5116352;28;20193;-82
2022/11/13 02:13:37;;;;;;;11.37;8.50;;;3.10;99.90;;;;;;5115767;28;20197;-82
2022/11/13 02:16:06;;;;;;;11.63;8.83;;;3.20;99.90;;;;;;5107424;28;20258;-82
2022/11/13 02:18:36;;;;;;;14.13;9.67;;;3.20;99.90;;;;;;5098061;28;20213;-82
2022/11/13 02:21:11;;;;;;;13.33;8.63;;;3.20;99.90;;;;;;5093585;28;20207;-82
2022/11/13 02:23:48;;;;;;;15.67;9.70;;;3.10;99.90;;;;;;5096135;28;20203;-82
2022/11/13 02:26:19;;;;;;;12.83;8.70;;;3.00;99.90;;;;;;5099475;28;20201;-82
2022/11/13 02:28:45;;;;;;;12.40;9.17;;;3.20;99.90;;;;;;5102463;28;20216;-82
2022/11/13 02:31:13;;;;;;;14.10;9.80;;;3.20;99.90;;;;;;5097822;28;20559;-82
2022/11/13 02:33:40;;;;;;;12.20;8.87;;;3.00;99.90;;;;;;5098484;28;20198;-82
2022/11/13 02:36:09;;;;;;;12.53;9.47;;;3.00;99.90;;;;;;5096730;28;20240;-82
2022/11/13 02:38:37;;;;;;;12.93;8.47;;;3.00;99.90;;;;;;5086416;28;20217;-82
2022/11/13 02:41:04;;;;;;;12.10;8.63;;;2.60;99.90;;;;;;5106572;28;20260;-82
2022/11/13 02:43:32;;;;;;;13.03;8.63;;;2.60;99.90;;;;;;5092423;28;20193;-82
2022/11/13 02:45:59;;;;;;;12.00;8.13;;;2.70;99.90;;;;;;5088415;28;20228;-82
2022/11/13 02:48:26;;;;;;;13.93;9.33;;;2.60;99.90;;;;;;5104870;28;20217;-82
2022/11/13 02:50:53;;;;;;;12.37;8.30;;;2.70;99.90;;;;;;5091310;28;20288;-82
2022/11/13 02:53:19;;;;;;;14.50;9.13;;;2.70;99.90;;;;;;5094895;28;20604;-82
2022/11/13 02:55:46;;;;;;;11.40;8.50;;;2.80;99.90;;;;;;5093866;28;20221;-82
2022/11/13 02:58:13;;;;;;;13.53;9.20;;;2.70;99.90;;;;;;5095998;28;20237;-82
2022/11/13 03:00:41;;;;;;;13.13;8.30;;;2.50;99.90;;;;;;5096146;28;20197;-82
2022/11/13 03:03:08;;;;;;;12.60;8.63;;;2.40;99.90;;;;;;5114535;28;20660;-82
2022/11/13 03:05:35;;;;;;;14.90;9.23;;;2.40;99.90;;;;;;5115390;28;20657;-82
2022/11/13 03:08:01;;;;;;;13.57;8.90;;;2.40;99.90;;;;;;5104857;28;20217;-82
2022/11/13 03:10:28;;;;;;;13.57;8.97;;;2.40;99.90;;;;;;5097061;28;20288;-82
2022/11/13 03:12:55;;;;;;;14.57;10.40;;;2.40;99.90;;;;;;5094550;28;20203;-82
2022/11/13 03:15:22;;;;;;;13.33;9.60;;;2.60;99.90;;;;;;5104522;28;20205;-82
2022/11/13 03:17:50;;;;;;;13.93;9.97;;;2.50;99.90;;;;;;5096952;28;20312;-82
2022/11/13 03:20:17;;;;;;;15.90;10.27;;;2.40;99.90;;;;;;5107773;28;20197;-81
2022/11/13 03:22:44;;;;;;;17.20;10.07;;;2.60;99.90;;;;;;5116416;28;20197;-82
2022/11/13 03:25:11;;;;;;;12.83;9.50;;;2.50;99.90;;;;;;5116953;28;20488;-82
2022/11/13 03:27:38;;;;;;;13.67;9.43;;;2.40;99.90;;;;;;5111816;28;20221;-82
2022/11/13 03:30:06;;;;;;;14.87;9.87;;;2.40;99.90;;;;;;5100750;28;20197;-82
2022/11/13 03:32:33;;;;;;;13.30;9.57;;;2.40;99.90;;;;;;5100424;28;20581;-82
2022/11/13 03:35:01;;;;;;;14.83;10.07;;;2.50;99.90;;;;;;5105549;28;20314;-82
2022/11/13 03:37:28;;;;;;;15.33;10.00;;;2.50;99.90;;;;;;5113739;28;20227;-82
2022/11/13 03:39:55;;;;;;;13.37;10.03;;;2.50;99.90;;;;;;5103212;28;20208;-82
2022/11/13 03:42:21;;;;;;;13.30;9.90;;;2.60;99.90;;;;;;5102260;28;20200;-83
2022/11/13 03:44:48;;;;;;;13.83;9.87;;;2.50;99.90;;;;;;5100191;28;20549;-82
2022/11/13 03:47:15;;;;;;;13.07;9.63;;;2.30;99.90;;;;;;5105547;28;20222;-82
2022/11/13 03:49:42;;;;;;;14.27;9.47;;;2.30;99.90;;;;;;5100462;28;20562;-82
2022/11/13 03:52:10;;;;;;;12.10;9.87;;;2.10;99.90;;;;;;5107011;28;20205;-82
2022/11/13 03:54:37;;;;;;;11.13;8.67;;;1.90;99.90;;;;;;5116415;28;20210;-82
2022/11/13 03:57:04;;;;;;;12.33;8.80;;;2.10;99.90;;;;;;5100769;28;20228;-82
2022/11/13 03:59:30;;;;;;;13.40;9.40;;;1.90;99.90;;;;;;5100598;28;20204;-82
2022/11/13 04:01:57;;;;;;;11.77;8.87;;;1.80;99.90;;;;;;5094028;28;20209;-82
2022/11/13 04:04:24;;;;;;;12.17;9.00;;;1.90;99.90;;;;;;5080246;28;20212;-82
2022/11/13 04:06:51;;;;;;;13.63;9.90;;;2.00;99.90;;;;;;5087871;28;20240;-82
2022/11/13 04:09:19;;;;;;;14.03;9.97;;;1.90;99.90;;;;;;5100037;28;20247;-82
2022/11/13 04:11:46;;;;;;;14.87;9.80;;;1.90;99.90;;;;;;5086154;28;20210;-81
2022/11/13 04:14:12;;;;;;;14.73;9.47;;;1.90;99.90;;;;;;5100390;28;20216;-81
2022/11/13 04:16:39;;;;;;;11.93;9.37;;;2.00;99.90;;;;;;5098722;28;20256;-81
2022/11/13 04:19:06;;;;;;;13.83;9.40;;;1.90;99.90;;;;;;5111997;28;20201;-81
2022/11/13 04:21:33;;;;;;;12.63;9.30;;;1.90;99.90;;;;;;5117742;28;20204;-82
2022/11/13 04:24:00;;;;;;;13.97;9.23;;;1.90;99.90;;;;;;5098655;28;20194;-81
2022/11/13 04:26:28;;;;;;;15.37;10.43;;;1.80;99.90;;;;;;5098218;28;20236;-81
2022/11/13 04:28:55;;;;;;;14.40;10.10;;;2.00;99.90;;;;;;5098037;28;20196;-81
2022/11/13 04:31:22;;;;;;;15.50;9.70;;;1.90;99.90;;;;;;5097053;28;20317;-81
2022/11/13 04:33:48;;;;;;;14.60;9.80;;;2.20;99.90;;;;;;5101270;28;20204;-81
2022/11/13 04:36:15;;;;;;;14.33;9.40;;;2.20;99.90;;;;;;5096454;28;20225;-82
2022/11/13 04:38:42;;;;;;;12.93;9.37;;;2.10;99.90;;;;;;5116877;28;20219;-82
2022/11/13 04:43:58;;;;;;;14.57;9.97;;;2.00;99.90;;;;;;5102758;28;20195;-81
2022/11/13 04:46:24;;;;;;;15.63;10.77;;;2.00;99.90;;;;;;5098704;28;20196;-82
2022/11/13 04:48:51;;;;;;;15.70;10.80;;;2.10;99.90;;;;;;5105880;28;20193;-81
2022/11/13 04:51:18;;;;;;;13.57;10.27;;;2.00;99.90;;;;;;5087876;28;20202;-82
2022/11/13 04:53:45;;;;;;;14.30;10.10;;;2.00;99.90;;;;;;5077049;28;20722;-82
2022/11/13 04:56:11;;;;;;;14.83;10.10;;;1.90;99.90;;;;;;5078773;28;20572;-82
2022/11/13 04:58:39;;;;;;;18.53;10.83;;;1.90;99.90;;;;;;5097408;28;20216;-82
2022/11/13 05:01:07;;;;;;;14.27;9.60;;;2.00;99.90;;;;;;5097177;28;20190;-82
2022/11/13 05:03:34;;;;;;;13.33;9.37;;;2.10;99.90;;;;;;5097457;28;20197;-82
2022/11/13 05:06:04;;;;;;;14.33;9.47;;;2.10;99.90;;;;;;5096835;28;20221;-81
2022/11/13 05:08:31;;;;;;;12.70;9.07;;;1.90;99.90;;;;;;5106462;28;20223;-82
2022/11/13 05:10:58;;;;;;;10.60;8.20;;;1.80;99.90;;;;;;5108962;28;20209;-81
2022/11/13 05:13:25;;;;;;;13.60;9.40;;;1.80;99.90;;;;;;5096350;28;20193;-85
2022/11/13 05:15:59;;;;;;;12.33;8.67;;;1.80;99.90;;;;;;5091073;28;20201;-81
2022/11/13 05:18:27;;;;;;;11.80;8.50;;;1.70;99.90;;;;;;5099757;28;20217;-81
2022/11/13 05:20:54;;;;;;;12.27;9.10;;;1.60;99.90;;;;;;5101634;28;20232;-81
2022/11/13 05:23:21;;;;;;;14.23;9.60;;;1.50;99.90;;;;;;5094519;28;20576;-81
2022/11/13 05:25:47;;;;;;;14.87;9.67;;;1.60;99.90;;;;;;5087489;28;20674;-81
2022/11/13 05:28:14;;;;;;;12.50;8.87;;;1.70;99.90;;;;;;5092162;28;20591;-80
2022/11/13 05:30:41;;;;;;;12.53;9.00;;;1.70;99.90;;;;;;5091783;28;20197;-81
2022/11/13 05:33:08;;;;;;;14.43;9.10;;;1.80;99.90;;;;;;5097224;28;20209;-81
2022/11/13 05:35:36;;;;;;;10.17;7.97;;;1.80;99.90;;;;;;5097348;28;20220;-81
2022/11/13 05:38:03;;;;;;;11.50;8.73;;;1.80;99.90;;;;;;5103922;28;20681;-81
2022/11/13 05:40:30;;;;;;;11.10;8.37;;;1.70;99.90;;;;;;5095838;28;20649;-81
2022/11/13 05:42:57;;;;;;;12.57;8.40;;;1.60;99.90;;;;;;5099441;28;20205;-81
2022/11/13 05:45:24;;;;;;;14.47;9.60;;;1.70;99.90;;;;;;5105561;28;20285;-80
2022/11/13 05:47:51;;;;;;;11.97;9.00;;;1.70;99.90;;;;;;5098353;28;20768;-81
2022/11/13 05:50:19;;;;;;;13.43;9.27;;;1.80;99.90;;;;;;5098416;28;20206;-82
2022/11/13 05:52:48;;;;;;;12.97;9.33;;;1.80;99.90;;;;;;5103024;28;20597;-81
2022/11/13 05:55:15;;;;;;;12.70;9.10;;;1.80;99.90;;;;;;5107002;28;20209;-84
2022/11/13 05:57:41;;;;;;;11.83;8.50;;;1.90;99.90;;;;;;5090338;28;20230;-81
2022/11/13 06:00:09;;;;;;;12.50;8.03;;;1.80;99.90;;;;;;5107789;28;20265;-82
2022/11/13 06:02:36;;;;;;;12.37;8.73;;;1.80;99.90;;;;;;5087968;28;20202;-81
2022/11/13 06:05:03;;;;;;;11.73;7.90;;;1.70;99.90;;;;;;5093343;28;20198;-82
2022/11/13 06:07:30;;;;;;;10.30;7.50;;;1.80;99.90;;;;;;5103912;28;20216;-81
2022/11/13 06:09:58;;;;;;;9.50;7.20;;;1.70;99.90;;;;;;5103625;28;20262;-81
2022/11/13 06:12:31;;;;;;;10.70;7.10;;;1.80;99.90;;;;;;5095891;28;20220;-81
2022/11/13 06:15:02;;;;;;;11.23;7.17;;;1.90;99.90;;;;;;5088774;28;20209;-81
2022/11/13 06:17:29;;;;;;;10.20;7.50;;;1.90;99.90;;;;;;5088195;28;20217;-80
2022/11/13 06:19:56;;;;;;;12.50;8.00;;;1.80;99.90;;;;;;5104430;28;20204;-81
2022/11/13 06:22:23;;;;;;;11.27;8.13;;;1.60;99.90;;;;;;5093283;28;20204;-81
2022/11/13 06:24:51;;;;;;;13.47;8.63;;;1.50;99.90;;;;;;5097453;28;20207;-81
2022/11/13 06:27:19;;;;;;;13.00;8.43;;;1.50;99.90;;;;;;5102780;28;20312;-81
2022/11/13 06:29:46;;;;;;;12.87;8.67;;;1.60;99.90;;;;;;5097579;28;20265;-80
2022/11/13 06:32:12;;;;;;;13.37;9.13;;;1.60;99.90;;;;;;5097622;28;20200;-79
2022/11/13 06:34:39;;;;;;;11.83;8.80;;;1.60;99.90;;;;;;5101630;28;20260;-82
2022/11/13 06:37:06;;;;;;;14.63;9.37;;;1.80;99.90;;;;;;5096358;28;20260;-81
2022/11/13 06:39:33;;;;;;;13.77;9.10;;;1.90;99.90;;;;;;5093997;28;20654;-81
2022/11/13 06:41:59;;;;;;;12.37;8.63;;;1.70;99.90;;;;;;5106526;28;20201;-81
2022/11/13 06:44:28;;;;;;;12.07;9.73;;;1.60;99.90;;;;;;5097579;28;20203;-81
2022/11/13 06:46:55;;;;;;;13.33;9.03;;;1.70;99.90;;;;;;5118255;28;20744;-80
2022/11/13 06:49:23;;;;;;;14.37;10.10;;;1.60;99.90;;;;;;5099312;28;20287;-80
2022/11/13 06:51:49;;;;;;;14.40;10.03;;;1.50;99.90;;;;;;5104145;28;20264;-80
2022/11/13 06:54:16;;;;;;;14.70;10.17;;;1.50;99.90;;;;;;5097466;28;20198;-81
2022/11/13 06:56:44;;;;;;;15.67;9.90;;;1.50;99.90;;;;;;5105087;28;20225;-81
2022/11/13 06:59:11;;;;;;;15.77;10.53;;;1.60;99.90;;;;;;5097434;28;20269;-81
2022/11/13 07:01:39;;;;;;;14.93;10.20;;;1.60;99.90;;;;;;5100047;28;20711;-80
2022/11/13 07:04:07;;;;;;;14.30;9.60;;;1.60;99.90;;;;;;5111784;28;20221;-80
2022/11/13 07:06:33;;;;;;;13.23;9.33;;;1.60;99.90;;;;;;5106794;28;20221;-79
2022/11/13 07:09:00;;;;;;;15.13;10.50;;;1.60;99.90;;;;;;5100669;28;20198;-80
2022/11/13 07:11:27;;;;;;;17.00;10.17;;;1.80;99.90;;;;;;5095588;28;20198;-81
2022/11/13 07:13:54;;;;;;;14.03;10.00;;;1.90;99.90;;;;;;5098900;28;20649;-81
2022/11/13 07:16:21;;;;;;;16.00;10.20;;;1.80;99.90;;;;;;5110937;28;20220;-81
2022/11/13 07:18:53;;;;;;;16.07;10.47;;;2.00;99.90;;;;;;5093317;28;20222;-81
2022/11/13 07:21:20;;;;;;;14.30;10.23;;;2.10;99.90;;;;;;5107978;28;20216;-85
2022/11/13 07:23:48;;;;;;;16.33;10.63;;;2.00;99.90;;;;;;5096340;28;20228;-81
2022/11/13 07:26:15;;;;;;;16.17;10.93;;;2.10;99.90;;;;;;5104784;28;20305;-82
2022/11/13 07:28:42;;;;;;;16.60;11.47;;;2.00;99.90;;;;;;5099164;28;20228;-82
2022/11/13 07:31:10;;;;;;;18.00;11.27;;;2.00;99.90;;;;;;5103500;28;20214;-81
2022/11/13 07:33:37;;;;;;;16.00;11.17;;;2.00;99.90;;;;;;5107833;28;20633;-82
2022/11/13 07:36:07;;;;;;;17.60;11.40;;;2.30;99.90;;;;;;5107462;28;20206;-82
2022/11/13 07:38:34;;;;;;;17.97;12.30;;;2.30;99.90;;;;;;5092328;28;20290;-82
2022/11/13 07:41:01;;;;;;;20.93;14.00;;;2.40;99.90;;;;;;5092616;28;20208;-81
2022/11/13 07:43:28;;;;;;;19.27;12.90;;;2.60;99.90;;;;;;5096838;28;20201;-81
2022/11/13 07:45:58;;;;;;;20.10;12.93;;;2.70;99.90;;;;;;5100523;28;20642;-82
2022/11/13 07:48:26;;;;;;;20.60;13.63;;;2.70;99.90;;;;;;5103421;28;20241;-82
2022/11/13 07:50:53;;;;;;;21.27;14.23;;;2.70;99.90;;;;;;5099663;28;20689;-81
2022/11/13 07:53:22;;;;;;;22.23;14.87;;;2.60;99.90;;;;;;5108084;28;20202;-82
2022/11/13 07:55:53;;;;;;;19.60;14.07;;;2.60;99.90;;;;;;5099146;28;20210;-81
2022/11/13 07:58:20;;;;;;;21.60;14.10;;;2.60;99.90;;;;;;5094676;28;20339;-81
2022/11/13 08:00:46;;;;;;;20.27;14.03;;;2.80;99.90;;;;;;5095226;28;20212;-81
2022/11/13 08:03:15;;;;;;;21.30;14.10;;;2.90;99.90;;;;;;5097284;28;20211;-81
2022/11/13 08:05:42;;;;;;;21.83;14.20;;;2.90;99.90;;;;;;5090941;28;20206;-81
2022/11/13 08:08:12;;;;;;;21.87;14.50;;;3.00;99.90;;;;;;5097156;28;20222;-82
2022/11/13 08:10:40;;;;;;;20.37;13.30;;;3.30;99.90;;;;;;5088175;28;20206;-81
2022/11/13 08:13:09;;;;;;;19.97;12.87;;;3.40;99.90;;;;;;5093408;28;20830;-81
2022/11/13 08:15:38;;;;;;;18.97;12.27;;;3.40;99.90;;;;;;5089727;28;20198;-81
2022/11/13 08:18:06;;;;;;;19.40;12.60;;;3.60;99.90;;;;;;5100832;28;20221;-81
2022/11/13 08:20:33;;;;;;;21.53;12.47;;;3.60;99.90;;;;;;5087909;28;20201;-81
2022/11/13 08:23:01;;;;;;;19.17;12.73;;;3.60;99.90;;;;;;5092410;28;20201;-81
2022/11/13 08:25:29;;;;;;;18.87;11.23;;;3.60;99.90;;;;;;5084760;28;20214;-81
2022/11/13 08:27:59;;;;;;;18.57;11.83;;;3.90;99.90;;;;;;5088039;28;20220;-82
2022/11/13 08:30:27;;;;;;;17.97;10.40;;;4.10;99.90;;;;;;5094284;28;20227;-81
2022/11/13 08:32:54;;;;;;;19.63;12.07;;;4.00;99.90;;;;;;5098592;28;20289;-82
2022/11/13 08:35:21;;;;;;;18.70;10.90;;;4.00;99.90;;;;;;5094270;28;20218;-82
2022/11/13 08:37:48;;;;;;;15.47;11.33;;;4.30;99.90;;;;;;5091535;28;20218;-82
2022/11/13 08:40:15;;;;;;;16.33;10.70;;;4.20;99.90;;;;;;5080364;28;20655;-82
2022/11/13 08:42:42;;;;;;;18.47;11.83;;;4.30;99.90;;;;;;5087827;28;20692;-82
2022/11/13 08:45:11;;;;;;;17.40;10.70;;;4.40;99.90;;;;;;5094412;28;20254;-81
2022/11/13 08:47:38;;;;;;;15.23;10.10;;;4.50;99.90;;;;;;5083481;28;20210;-81
2022/11/13 08:50:06;;;;;;;16.67;10.27;;;4.60;99.90;;;;;;5089779;28;20244;-82
2022/11/13 08:52:33;;;;;;;16.50;10.27;;;4.70;99.90;;;;;;5091391;28;20207;-82
2022/11/13 08:55:00;;;;;;;15.80;9.63;;;4.70;99.90;;;;;;5096796;28;20847;-81
2022/11/13 08:57:27;;;;;;;15.70;10.17;;;4.90;99.90;;;;;;5079113;28;20233;-81
2022/11/13 08:59:53;;;;;;;15.53;9.77;;;5.20;99.90;;;;;;5089473;28;20214;-81
2022/11/13 09:02:21;;;;;;;15.97;10.23;;;5.20;99.90;;;;;;5095856;28;20214;-80
2022/11/13 09:04:48;;;;;;;16.27;10.20;;;5.60;99.90;;;;;;5106611;28;20262;-81
2022/11/13 09:07:15;;;;;;;17.67;11.00;;;5.70;99.90;;;;;;5092789;28;20294;-81
2022/11/13 09:09:42;;;;;;;16.83;11.20;;;5.90;99.90;;;;;;5106897;28;20205;-81
2022/11/13 09:12:09;;;;;;;18.57;12.10;;;5.80;99.90;;;;;;5093983;28;20238;-81
2022/11/13 09:14:36;;;;;;;20.80;12.83;;;5.60;99.90;;;;;;5092972;28;20205;-81
2022/11/13 09:17:03;;;;;;;22.57;13.20;;;5.50;99.90;;;;;;5093818;28;20217;-82
2022/11/13 09:19:31;;;;;;;23.43;14.90;;;5.60;99.90;;;;;;5089737;28;20220;-82
2022/11/13 09:21:59;;;;;;;23.83;15.30;;;5.80;99.90;;;;;;5088134;28;20198;-83
2022/11/13 09:24:25;;;;;;;25.90;17.53;;;6.00;99.90;;;;;;5093729;28;20269;-83
2022/11/13 09:26:52;;;;;;;28.43;18.47;;;6.10;99.90;;;;;;5084473;28;20225;-81
2022/11/13 09:29:19;;;;;;;27.53;17.97;;;6.20;99.90;;;;;;5085420;28;20204;-82
2022/11/13 09:31:46;;;;;;;29.47;18.97;;;6.20;99.90;;;;;;5095132;28;20221;-82
2022/11/13 09:34:13;;;;;;;28.30;18.80;;;6.40;99.90;;;;;;5099993;28;20214;-80
2022/11/13 09:36:41;;;;;;;26.87;17.73;;;6.50;99.90;;;;;;5088961;28;20214;-82
2022/11/13 09:39:08;;;;;;;27.97;18.60;;;6.50;99.90;;;;;;5081329;28;20222;-81
2022/11/13 09:41:39;;;;;;;27.37;18.57;;;6.70;99.90;;;;;;5093998;28;20214;-81
2022/11/13 09:44:13;;;;;;;27.23;17.83;;;6.80;99.90;;;;;;5087107;28;20205;-81
2022/11/13 09:46:43;;;;;;;25.60;16.43;;;6.80;99.90;;;;;;5097513;28;20259;-81
2022/11/13 09:49:15;;;;;;;26.93;18.57;;;6.90;99.90;;;;;;5099596;28;20233;-81
2022/11/13 09:51:50;;;;;;;25.93;17.10;;;7.00;99.90;;;;;;5095362;28;20273;-81
2022/11/13 09:54:19;;;;;;;27.80;17.53;;;7.20;99.90;;;;;;5105949;28;20212;-84
2022/11/13 09:56:54;;;;;;;27.60;18.30;;;7.30;99.90;;;;;;5115826;28;20296;-82
2022/11/13 09:59:26;;;;;;;25.30;17.00;;;7.40;99.90;;;;;;5105933;28;20225;-83
2022/11/13 10:02:00;;;;;;;28.17;17.80;;;7.50;99.90;;;;;;5107677;28;20607;-81
2022/11/13 10:04:38;;;;;;;25.60;16.03;;;7.50;99.90;;;;;;5111350;28;20196;-83
2022/11/13 10:07:24;;;;;;;26.33;17.80;;;7.50;99.90;;;;;;5103061;28;20274;-82
2022/11/13 10:10:01;;;;;;;29.07;18.20;;;7.60;99.90;;;;;;5098467;28;20201;-82
2022/11/13 10:12:31;;;;;;;26.37;16.93;;;7.60;99.90;;;;;;5081113;28;20226;-82
2022/11/13 10:15:02;;;;;;;27.33;18.33;;;7.60;99.90;;;;;;5081505;28;20266;-83
2022/11/13 10:17:37;;;;;;;28.50;17.77;;;7.50;99.90;;;;;;5087165;28;20676;-81
2022/11/13 10:20:08;;;;;;;27.93;18.27;;;7.50;99.90;;;;;;5094741;28;20200;-81
2022/11/13 10:22:41;;;;;;;27.00;16.47;;;7.60;99.90;;;;;;5100708;28;20847;-82
2022/11/13 10:25:15;;;;;;;26.50;16.60;;;7.50;99.90;;;;;;5097966;28;20289;-82
2022/11/13 10:27:42;;;;;;;25.67;16.83;;;7.60;99.90;;;;;;5098814;28;20249;-80
2022/11/13 10:30:15;;;;;;;23.70;16.40;;;7.60;99.90;;;;;;5087957;28;20587;-80
2022/11/13 10:32:43;;;;;;;26.00;17.60;;;7.60;99.90;;;;;;5109133;28;20202;-79
2022/11/13 10:35:31;;;;;;;29.40;17.93;;;7.70;99.90;;;;;;5102641;28;20201;-80
2022/11/13 10:38:03;;;;;;;27.67;17.97;;;7.70;99.90;;;;;;5103833;28;20222;-80
2022/11/13 10:40:33;;;;;;;32.07;20.77;;;7.70;99.90;;;;;;5095625;28;20207;-82
2022/11/13 10:43:14;;;;;;;29.27;20.40;;;7.90;99.90;;;;;;5098755;28;20288;-84
2022/11/13 10:45:42;;;;;;;31.37;19.43;;;7.70;99.90;;;;;;5093386;28;20557;-81
2022/11/13 10:48:20;;;;;;;30.30;19.90;;;7.70;99.90;;;;;;5101244;28;20228;-80
2022/11/13 10:50:54;;;;;;;30.57;19.83;;;7.80;99.90;;;;;;5093736;28;20574;-81
2022/11/13 10:53:22;;;;;;;25.47;15.47;;;7.60;99.90;;;;;;5109692;28;20645;-81
2022/11/13 10:55:52;;;;;;;25.93;16.13;;;7.60;99.90;;;;;;5104105;28;20261;-80
2022/11/13 10:58:20;;;;;;;30.00;18.57;;;7.70;99.90;;;;;;5098109;28;20222;-84
2022/11/13 11:00:48;;;;;;;30.60;20.07;;;7.70;99.90;;;;;;5092705;28;20603;-82
2022/11/13 11:03:17;;;;;;;33.33;20.07;;;7.70;99.90;;;;;;5101106;28;20619;-82
2022/11/13 11:05:55;;;;;;;30.43;20.13;;;7.80;99.90;;;;;;5102029;28;20205;-81
2022/11/13 11:08:29;;;;;;;30.90;19.20;;;7.70;99.90;;;;;;5098914;28;20225;-81
2022/11/13 11:13:43;;;;;;;26.60;17.40;;;7.90;99.90;;;;;;5094847;28;20267;-81
2022/11/13 11:16:17;;;;;;;26.93;15.27;;;7.90;99.90;;;;;;5107884;28;20645;-81
2022/11/13 11:18:49;;;;;;;26.83;14.37;;;7.60;99.90;;;;;;5090702;28;20225;-82
2022/11/13 11:21:21;;;;;;;26.93;16.37;;;7.60;99.90;;;;;;5090686;28;20213;-83
2022/11/13 11:23:55;;;;;;;32.53;18.97;;;7.40;99.90;;;;;;5096644;28;20204;-81
2022/11/13 11:26:27;;;;;;;31.73;18.80;;;7.50;99.90;;;;;;5101621;28;20688;-81
2022/11/13 11:29:03;;;;;;;28.87;15.60;;;7.30;99.90;;;;;;5107833;28;20204;-81
2022/11/13 11:31:37;;;;;;;37.03;21.83;;;7.30;99.90;;;;;;5089080;28;20209;-81
2022/11/13 11:34:15;;;;;;;30.47;17.77;;;7.50;99.90;;;;;;5099069;28;20281;-81
2022/11/13 11:36:52;;;;;;;32.63;20.33;;;7.60;99.90;;;;;;5096494;28;20222;-81
2022/11/13 11:39:28;;;;;;;33.93;20.67;;;7.70;99.90;;;;;;5106634;28;20225;-81
2022/11/13 11:42:04;;;;;;;32.33;20.63;;;7.70;99.90;;;;;;5092434;28;20721;-82
2022/11/13 11:44:39;;;;;;;33.43;18.33;;;7.90;99.90;;;;;;5099064;28;20262;-81
2022/11/13 11:47:14;;;;;;;35.77;20.53;;;7.90;99.90;;;;;;5113827;28;20308;-84
2022/11/13 11:49:42;;;;;;;31.73;17.20;;;8.10;99.90;;;;;;5101836;28;20225;-81
2022/11/13 11:52:22;;;;;;;32.07;16.27;;;8.30;99.90;;;;;;5108185;28;20219;-82
2022/11/13 11:54:57;;;;;;;28.03;16.47;;;7.60;99.90;;;;;;5101334;28;20266;-83
2022/11/13 11:57:42;;;;;;;32.33;19.30;;;7.80;99.90;;;;;;5100315;28;20228;-82
2022/11/13 12:00:12;;;;;;;34.37;18.57;;;7.80;99.90;;;;;;5103902;28;20235;-83
2022/11/13 12:03:02;;;;;;;35.10;18.90;;;8.00;99.90;;;;;;5105281;28;20197;-81
2022/11/13 12:05:35;;;;;;;25.40;14.37;;;7.50;99.90;;;;;;5100804;28;20233;-81
2022/11/13 12:08:14;;;;;;;32.27;18.13;;;7.30;99.90;;;;;;5080204;28;20227;-82
2022/11/13 12:10:50;;;;;;;37.00;19.77;;;7.40;99.90;;;;;;5095026;28;20197;-81
2022/11/13 12:13:27;;;;;;;38.40;22.07;;;7.40;99.90;;;;;;5109716;28;20219;-81
2022/11/13 12:16:00;;;;;;;37.80;21.67;;;7.50;99.90;;;;;;5102721;28;20238;-81
2022/11/13 12:18:36;;;;;;;34.07;19.27;;;7.80;99.90;;;;;;5105635;28;20237;-80
2022/11/13 12:21:19;;;;;;;36.70;19.90;;;7.90;99.90;;;;;;5101829;28;20205;-81
2022/11/13 12:24:11;;;;;;;34.77;18.97;;;7.70;99.90;;;;;;5099964;28;20236;-82
2022/11/13 12:26:46;;;;;;;35.03;17.70;;;7.70;99.90;;;;;;5103860;28;20269;-81
2022/11/13 12:29:36;;;;;;;33.43;18.90;;;7.30;99.90;;;;;;5102914;28;20942;-82
2022/11/13 12:32:14;;;;;;;33.23;18.63;;;7.20;99.90;;;;;;5095700;28;20201;-81
2022/11/13 12:34:47;;;;;;;33.20;17.27;;;7.30;99.90;;;;;;5095369;28;20296;-82
2022/11/13 12:37:18;;;;;;;32.27;15.53;;;7.30;99.90;;;;;;5093511;28;20217;-82
2022/11/13 12:39:51;;;;;;;37.80;20.27;;;7.20;99.90;;;;;;5108319;28;20206;-82
2022/11/13 12:42:28;;;;;;;36.33;20.23;;;7.40;99.90;;;;;;5097542;28;20206;-82
2022/11/13 12:45:04;;;;;;;32.50;16.70;;;7.30;99.90;;;;;;5090217;28;20253;-82
2022/11/13 12:47:33;;;;;;;34.97;17.17;;;7.30;99.90;;;;;;5087412;28;20223;-83
2022/11/13 12:50:02;;;;;;;36.13;17.07;;;7.30;99.90;;;;;;5098916;28;20194;-83
2022/11/13 12:52:29;;;;;;;35.90;19.30;;;7.10;99.90;;;;;;5089509;28;20268;-83
2022/11/13 12:55:08;;;;;;;36.90;17.80;;;7.10;99.90;;;;;;5088623;28;20203;-81